createdAt,value
2023-08-15T00:01:02.702Z,10.93
2023-08-15T00:04:05.891Z,11.68
2023-08-15T00:07:09.089Z,9.82
2023-08-15T00:10:12.071Z,10.75
2023-08-15T00:13:15.102Z,10.75
2023-08-15T00:16:18.142Z,12.23
2023-08-15T00:19:21.192Z,12.75
2023-08-15T00:22:24.134Z,10.68
2023-08-15T00:25:27.219Z,12.77
2023-08-15T00:28:30.187Z,11.13
2023-08-15T00:31:34.342Z,12.33
2023-08-15T00:34:37.326Z,12.60
2023-08-15T00:37:40.332Z,14.68
2023-08-15T00:40:43.340Z,11.15
2023-08-15T00:43:46.352Z,10.65
2023-08-15T00:46:49.387Z,9.80
2023-08-15T00:49:53.434Z,13.77
2023-08-15T00:52:56.463Z,11.40
2023-08-15T00:55:59.551Z,11.15
2023-08-15T00:59:02.963Z,13.27
2023-08-15T01:02:06.105Z,11.33
2023-08-15T01:05:09.285Z,13.23
2023-08-15T01:08:12.400Z,10.85
2023-08-15T01:11:15.415Z,12.52
2023-08-15T01:14:18.687Z,12.88
2023-08-15T01:17:28.840Z,13.60
2023-08-15T01:20:36.258Z,13.40
2023-08-15T01:23:44.671Z,14.30
2023-08-15T01:26:47.731Z,12.38
2023-08-15T01:29:50.793Z,12.27
2023-08-15T01:33:08.316Z,10.97
2023-08-15T01:36:14.580Z,12.60
2023-08-15T01:39:22.241Z,11.88
2023-08-15T01:42:25.526Z,12.85
2023-08-15T01:45:29.318Z,10.45
2023-08-15T01:48:32.309Z,13.00
2023-08-15T01:51:35.267Z,11.90
2023-08-15T01:54:38.228Z,12.05
2023-08-15T01:57:41.213Z,12.10
2023-08-15T02:00:45.002Z,13.20
2023-08-15T02:03:48.018Z,12.17
2023-08-15T02:06:51.112Z,10.93
2023-08-15T02:09:54.123Z,14.00
2023-08-15T02:12:57.064Z,11.77
2023-08-15T02:16:00.448Z,14.70
2023-08-15T02:19:03.891Z,12.33
2023-08-15T02:22:06.865Z,13.60
2023-08-15T02:25:09.932Z,11.65
2023-08-15T02:28:12.900Z,12.82
2023-08-15T02:31:15.893Z,12.73
2023-08-15T02:34:19.371Z,15.23
2023-08-15T02:37:22.758Z,11.10
2023-08-15T02:40:29.653Z,13.93
2023-08-15T02:43:32.662Z,13.35
2023-08-15T02:46:36.146Z,12.00
2023-08-15T02:49:39.855Z,13.13
2023-08-15T02:52:42.837Z,12.43
2023-08-15T02:55:49.838Z,12.75
2023-08-15T02:58:54.167Z,13.90
2023-08-15T03:01:57.302Z,13.05
2023-08-15T03:05:00.388Z,14.07
2023-08-15T03:08:03.430Z,13.25
2023-08-15T03:11:06.424Z,13.85
2023-08-15T03:14:09.473Z,12.40
2023-08-15T03:17:12.584Z,13.93
2023-08-15T03:20:16.828Z,12.07
2023-08-15T03:23:20.590Z,11.60
2023-08-15T03:26:23.628Z,13.05
2023-08-15T03:29:26.717Z,12.73
2023-08-15T03:32:29.684Z,15.90
2023-08-15T03:35:32.827Z,12.07
2023-08-15T03:38:35.791Z,14.35
2023-08-15T03:41:39.187Z,15.35
2023-08-15T03:44:42.114Z,12.07
2023-08-15T03:47:45.529Z,11.00
2023-08-15T03:50:48.565Z,12.13
2023-08-15T03:53:51.566Z,11.13
2023-08-15T03:56:54.629Z,11.10
2023-08-15T03:59:57.592Z,12.63
2023-08-15T04:03:00.823Z,11.68
2023-08-15T04:06:03.920Z,13.47
2023-08-15T04:09:07.425Z,11.30
2023-08-15T04:12:10.442Z,12.27
2023-08-15T04:15:13.416Z,11.57
2023-08-15T04:18:16.422Z,11.07
2023-08-15T04:21:19.474Z,12.13
2023-08-15T04:24:22.459Z,11.82
2023-08-15T04:27:25.488Z,11.43
2023-08-15T04:30:30.785Z,11.75
2023-08-15T04:33:33.813Z,11.50
2023-08-15T04:36:37.375Z,15.00
2023-08-15T04:39:40.385Z,12.55
2023-08-15T04:42:43.441Z,10.98
2023-08-15T04:45:46.477Z,11.43
2023-08-15T04:48:49.772Z,12.05
2023-08-15T04:51:52.819Z,12.17
2023-08-15T04:54:55.980Z,12.43
2023-08-15T04:57:59.339Z,10.43
2023-08-15T05:01:03.078Z,9.80
2023-08-15T05:04:06.568Z,10.93
2023-08-15T05:07:09.587Z,9.67
2023-08-15T05:10:12.761Z,10.82
2023-08-15T05:13:19.225Z,10.30
2023-08-15T05:16:22.406Z,10.52
2023-08-15T05:19:25.564Z,10.93
2023-08-15T05:22:28.592Z,13.03
2023-08-15T05:25:31.671Z,13.15
2023-08-15T05:28:36.855Z,10.93
2023-08-15T05:31:41.078Z,12.65
2023-08-15T05:34:44.121Z,11.88
2023-08-15T05:37:47.526Z,11.90
2023-08-15T05:40:50.494Z,11.98
2023-08-15T05:43:53.483Z,12.30
2023-08-15T05:46:56.593Z,10.48
2023-08-15T05:49:59.616Z,10.32
2023-08-15T05:53:02.573Z,10.90
2023-08-15T05:56:05.617Z,11.20
2023-08-15T05:59:08.632Z,11.98
2023-08-15T06:02:12.629Z,13.45
2023-08-15T06:05:15.767Z,14.20
2023-08-15T06:08:18.775Z,16.97
2023-08-15T06:11:21.760Z,13.90
2023-08-15T06:14:24.783Z,13.00
2023-08-15T06:17:27.869Z,14.77
2023-08-15T06:20:31.442Z,11.75
2023-08-15T06:23:34.414Z,11.70
2023-08-15T06:26:37.511Z,10.70
2023-08-15T06:29:40.536Z,10.93
2023-08-15T06:32:45.279Z,13.27
2023-08-15T06:35:48.311Z,12.50
2023-08-15T06:38:51.628Z,10.03
2023-08-15T06:41:54.659Z,8.88
2023-08-15T06:45:06.490Z,10.13
2023-08-15T06:48:09.571Z,13.35
2023-08-15T06:51:13.118Z,11.10
2023-08-15T06:54:16.172Z,11.87
2023-08-15T06:57:19.445Z,10.73
2023-08-15T07:00:22.836Z,9.65
2023-08-15T07:03:25.947Z,10.52
2023-08-15T07:06:29.156Z,9.88
2023-08-15T07:09:34.120Z,10.23
2023-08-15T07:12:37.164Z,8.65
2023-08-15T07:15:40.139Z,11.82
2023-08-15T07:18:43.310Z,8.00
2023-08-15T07:21:46.790Z,8.80
2023-08-15T07:24:49.817Z,8.33
2023-08-15T07:27:52.780Z,9.35
2023-08-15T07:30:56.408Z,8.75
2023-08-15T07:33:59.549Z,7.70
2023-08-15T07:37:02.572Z,7.20
2023-08-15T07:40:10.847Z,7.77
2023-08-15T07:43:14.017Z,12.10
2023-08-15T07:46:17.086Z,8.80
2023-08-15T07:49:20.175Z,11.35
2023-08-15T07:52:23.180Z,7.07
2023-08-15T07:55:28.550Z,7.43
2023-08-15T07:58:34.641Z,7.65
2023-08-15T08:01:37.758Z,7.00
2023-08-15T08:04:42.400Z,10.27
2023-08-15T08:07:45.595Z,8.68
2023-08-15T08:10:48.597Z,15.77
2023-08-15T08:13:51.661Z,8.70
2023-08-15T08:16:54.654Z,8.48
2023-08-15T08:19:57.680Z,7.95
2023-08-15T08:23:00.726Z,9.35
2023-08-15T08:26:03.711Z,6.57
2023-08-15T08:29:06.691Z,7.32
2023-08-15T08:32:09.673Z,6.97
2023-08-15T08:35:16.272Z,7.97
2023-08-15T08:38:20.496Z,8.23
2023-08-15T08:41:23.932Z,11.87
2023-08-15T08:44:27.651Z,6.25
2023-08-15T08:47:31.715Z,7.20
2023-08-15T08:50:34.791Z,7.75
2023-08-15T08:53:37.768Z,6.43
2023-08-15T08:56:41.696Z,9.97
2023-08-15T08:59:45.010Z,6.80
2023-08-15T09:02:48.158Z,10.98
2023-08-15T09:05:51.612Z,8.75
2023-08-15T09:08:55.242Z,6.85
2023-08-15T09:11:58.276Z,7.83
2023-08-15T09:15:01.303Z,8.82
2023-08-15T09:18:09.201Z,7.70
2023-08-15T09:21:14.993Z,7.10
2023-08-15T09:24:17.968Z,7.35
2023-08-15T09:27:21.193Z,7.40
2023-08-15T09:30:24.412Z,7.45
2023-08-15T09:33:27.381Z,7.30
2023-08-15T09:36:33.226Z,6.25
2023-08-15T09:39:36.175Z,7.97
2023-08-15T09:42:39.155Z,7.23
2023-08-15T09:45:42.336Z,7.55
2023-08-15T09:48:47.986Z,6.88
2023-08-15T09:51:50.984Z,6.20
2023-08-15T09:54:53.979Z,9.25
2023-08-15T09:57:57.469Z,8.40
2023-08-15T10:01:00.593Z,7.00
2023-08-15T10:04:04.331Z,8.88
2023-08-15T10:07:07.686Z,8.88
2023-08-15T10:10:11.102Z,9.15
2023-08-15T10:13:14.059Z,9.73
2023-08-15T10:16:17.287Z,6.80
2023-08-15T10:19:21.992Z,8.35
2023-08-15T10:22:25.250Z,7.30
2023-08-15T10:25:28.743Z,7.22
2023-08-15T10:28:34.322Z,7.33
2023-08-15T10:31:38.282Z,8.77
2023-08-15T10:34:41.305Z,7.93
2023-08-15T10:37:46.763Z,9.63
2023-08-15T10:40:51.290Z,7.63
2023-08-15T10:43:55.891Z,7.47
2023-08-15T10:46:58.905Z,7.32
2023-08-15T10:50:01.876Z,7.07
2023-08-15T10:53:07.926Z,7.45
2023-08-15T10:56:11.297Z,8.63
2023-08-15T10:59:16.231Z,6.63
2023-08-15T11:02:20.655Z,7.80
2023-08-15T11:05:23.695Z,6.40
2023-08-15T11:08:26.749Z,7.00
2023-08-15T11:11:33.256Z,8.40
2023-08-15T11:14:36.216Z,8.53
2023-08-15T11:17:39.582Z,6.88
2023-08-15T11:20:42.565Z,9.55
2023-08-15T11:23:47.749Z,8.70
2023-08-15T11:26:54.652Z,7.43
2023-08-15T11:29:58.665Z,9.70
2023-08-15T11:33:02.740Z,10.57
2023-08-15T11:36:11.310Z,9.93
2023-08-15T11:39:14.918Z,10.23
2023-08-15T11:42:18.018Z,6.55
2023-08-15T11:45:22.522Z,7.13
2023-08-15T11:48:25.568Z,9.07
2023-08-15T11:51:28.544Z,8.10
2023-08-15T11:54:31.499Z,7.07
2023-08-15T11:57:35.863Z,6.88
2023-08-15T12:00:38.998Z,6.80
2023-08-15T12:03:42.055Z,8.40
2023-08-15T12:06:45.192Z,7.18
2023-08-15T12:09:51.356Z,7.00
2023-08-15T12:12:54.389Z,8.77
2023-08-15T12:15:57.419Z,7.63
2023-08-15T12:19:00.491Z,10.10
2023-08-15T12:22:05.014Z,7.72
2023-08-15T12:25:08.997Z,8.00
2023-08-15T12:28:12.051Z,7.97
2023-08-15T12:31:15.105Z,11.37
2023-08-15T12:34:18.149Z,8.50
2023-08-15T12:37:21.155Z,7.25
2023-08-15T12:40:30.897Z,7.57
2023-08-15T12:43:34.557Z,7.22
2023-08-15T12:46:37.583Z,8.93
2023-08-15T12:49:40.581Z,10.55
2023-08-15T12:52:43.578Z,9.87
2023-08-15T12:55:46.901Z,7.05
2023-08-15T12:58:49.945Z,6.85
2023-08-15T13:01:53.088Z,8.27
2023-08-15T13:04:56.972Z,6.80
2023-08-15T13:08:00.007Z,7.53
2023-08-15T13:11:03.013Z,8.90
2023-08-15T13:14:06.162Z,9.30
2023-08-15T13:17:09.172Z,5.95
2023-08-15T13:20:13.013Z,9.13
2023-08-15T13:23:16.021Z,8.67
2023-08-15T13:26:22.119Z,8.00
2023-08-15T13:29:25.365Z,8.75
2023-08-15T13:32:28.830Z,8.77
2023-08-15T13:35:31.839Z,7.32
2023-08-15T13:38:35.652Z,7.77
2023-08-15T13:41:38.742Z,9.43
2023-08-15T13:44:41.727Z,7.50
2023-08-15T13:47:44.792Z,6.65
2023-08-15T13:50:48.934Z,6.70
2023-08-15T13:53:51.966Z,7.80
2023-08-15T13:56:55.943Z,7.37
2023-08-15T13:59:59.209Z,6.65
2023-08-15T14:03:02.314Z,7.65
2023-08-15T14:06:05.643Z,8.50
2023-08-15T14:09:08.690Z,7.23
2023-08-15T14:12:11.640Z,9.63
2023-08-15T14:15:15.306Z,8.93
2023-08-15T14:18:18.248Z,9.43
2023-08-15T14:21:21.240Z,9.52
2023-08-15T14:24:24.359Z,8.60
2023-08-15T14:27:27.349Z,8.27
2023-08-15T14:30:30.883Z,8.55
2023-08-15T14:33:33.942Z,8.77
2023-08-15T14:36:37.161Z,9.05
2023-08-15T14:39:40.169Z,11.87
2023-08-15T14:42:43.224Z,8.63
2023-08-15T14:45:46.271Z,9.68
2023-08-15T14:48:49.480Z,8.10
2023-08-15T14:51:53.367Z,8.88
2023-08-15T14:54:56.836Z,9.17
2023-08-15T14:57:59.796Z,12.37
2023-08-15T15:01:05.397Z,7.60
2023-08-15T15:04:08.395Z,7.72
2023-08-15T15:07:11.416Z,8.05
2023-08-15T15:10:14.764Z,7.67
2023-08-15T15:13:17.899Z,10.53
2023-08-15T15:16:21.229Z,8.80
2023-08-15T15:19:24.487Z,8.68
2023-08-15T15:22:27.545Z,12.38
2023-08-15T15:25:30.529Z,9.17
2023-08-15T15:28:33.574Z,9.20
2023-08-15T15:31:36.640Z,8.27
2023-08-15T15:34:40.109Z,9.10
2023-08-15T15:37:43.815Z,6.63
2023-08-15T15:40:46.780Z,7.50
2023-08-15T15:43:49.766Z,8.50
2023-08-15T15:46:55.020Z,9.60
2023-08-15T15:49:59.092Z,7.75
2023-08-15T15:53:02.356Z,7.55
2023-08-15T15:56:05.490Z,9.57
2023-08-15T15:59:08.540Z,7.13
2023-08-15T16:02:11.792Z,8.15
2023-08-15T16:05:15.005Z,9.43
2023-08-15T16:08:17.984Z,8.93
2023-08-15T16:11:20.967Z,8.53
2023-08-15T16:14:23.989Z,9.20
2023-08-15T16:17:27.296Z,7.78
2023-08-15T16:20:30.339Z,8.48
2023-08-15T16:23:33.318Z,6.85
2023-08-15T16:26:37.031Z,7.43
2023-08-15T16:29:40.059Z,10.73
2023-08-15T16:32:43.189Z,9.70
2023-08-15T16:35:46.316Z,7.70
2023-08-15T16:38:49.306Z,7.90
2023-08-15T16:41:52.729Z,10.67
2023-08-15T16:44:55.734Z,9.40
2023-08-15T16:47:58.848Z,9.25
2023-08-15T16:51:01.923Z,10.02
2023-08-15T16:54:05.260Z,9.57
2023-08-15T16:57:08.306Z,9.93
2023-08-15T17:00:11.876Z,10.60
2023-08-15T17:03:14.956Z,9.68
2023-08-15T17:06:18.570Z,9.43
2023-08-15T17:09:21.593Z,10.35
2023-08-15T17:12:24.923Z,12.70
2023-08-15T17:15:28.138Z,14.97
2023-08-15T17:18:31.135Z,9.07
2023-08-15T17:21:34.109Z,11.52
2023-08-15T17:24:37.080Z,10.30
2023-08-15T17:27:40.086Z,13.03
2023-08-15T17:30:43.129Z,11.87
2023-08-15T17:33:46.148Z,12.18
2023-08-15T17:36:50.163Z,9.52
2023-08-15T17:39:53.277Z,10.60
2023-08-15T17:42:56.260Z,9.40
2023-08-15T17:45:59.323Z,9.43
2023-08-15T17:49:02.397Z,13.25
2023-08-15T17:52:05.511Z,18.23
2023-08-15T17:55:08.702Z,19.10
2023-08-15T17:58:11.705Z,14.13
2023-08-15T18:01:14.771Z,14.43
2023-08-15T18:04:17.802Z,12.63
2023-08-15T18:07:20.879Z,11.82
2023-08-15T18:10:23.952Z,10.70
2023-08-15T18:13:27.305Z,14.90
2023-08-15T18:16:31.004Z,18.37
2023-08-15T18:19:34.059Z,13.30
2023-08-15T18:22:38.846Z,13.07
2023-08-15T18:25:41.844Z,11.57
2023-08-15T18:28:45.961Z,9.47
2023-08-15T18:31:49.025Z,10.63
2023-08-15T18:34:52.123Z,12.70
2023-08-15T18:37:55.079Z,11.77
2023-08-15T18:40:58.644Z,13.00
2023-08-15T18:44:01.661Z,10.03
2023-08-15T18:47:07.414Z,11.47
2023-08-15T18:50:10.821Z,13.15
2023-08-15T18:53:13.868Z,13.13
2023-08-15T18:56:16.860Z,12.15
2023-08-15T18:59:24.228Z,14.33
2023-08-15T19:02:27.409Z,14.70
2023-08-15T19:05:30.490Z,12.48
2023-08-15T19:08:34.893Z,13.98
2023-08-15T19:11:38.540Z,15.18
2023-08-15T19:14:41.996Z,13.07
2023-08-15T19:17:48.816Z,13.97
2023-08-15T19:20:51.878Z,16.08
2023-08-15T19:23:54.835Z,11.02
2023-08-15T19:26:57.810Z,11.75
2023-08-15T19:30:00.761Z,12.47
2023-08-15T19:33:03.805Z,15.47
2023-08-15T19:36:06.973Z,11.43
2023-08-15T19:39:10.487Z,16.58
2023-08-15T19:42:13.473Z,10.55
2023-08-15T19:45:16.586Z,15.33
2023-08-15T19:48:19.628Z,11.50
2023-08-15T19:51:22.739Z,12.65
2023-08-15T19:54:25.781Z,8.73
2023-08-15T19:57:28.787Z,12.63
2023-08-15T20:00:32.040Z,12.73
2023-08-15T20:03:35.036Z,12.53
2023-08-15T20:06:38.121Z,12.25
2023-08-15T20:09:44.582Z,12.00
2023-08-15T20:12:54.254Z,15.35
2023-08-15T20:15:58.852Z,10.23
2023-08-15T20:19:01.867Z,13.47
2023-08-15T20:22:04.877Z,12.07
2023-08-15T20:25:09.189Z,14.23
2023-08-15T20:28:15.028Z,14.65
2023-08-15T20:31:18.187Z,14.27
2023-08-15T20:34:23.382Z,12.37
2023-08-15T20:37:26.517Z,12.70
2023-08-15T20:40:29.577Z,12.10
2023-08-15T20:43:32.574Z,14.07
2023-08-15T20:46:40.420Z,13.27
2023-08-15T20:49:43.488Z,11.03
2023-08-15T20:52:46.479Z,9.95
2023-08-15T20:55:49.492Z,11.43
2023-08-15T20:58:52.448Z,12.02
2023-08-15T21:01:55.521Z,10.37
2023-08-15T21:04:58.611Z,10.60
2023-08-15T21:08:01.621Z,11.20
2023-08-15T21:11:04.648Z,14.27
2023-08-15T21:14:07.667Z,10.40
2023-08-15T21:17:10.668Z,11.57
2023-08-15T21:20:13.705Z,11.10
2023-08-15T21:23:16.677Z,12.95
2023-08-15T21:26:19.629Z,14.43
2023-08-15T21:29:22.594Z,12.48
2023-08-15T21:32:25.674Z,10.30
2023-08-15T21:35:28.728Z,9.90
2023-08-15T21:38:31.744Z,15.98
2023-08-15T21:41:34.723Z,11.27
2023-08-15T21:44:37.745Z,11.10
2023-08-15T21:47:40.775Z,11.50
2023-08-15T21:50:43.765Z,10.73
2023-08-15T21:53:46.769Z,12.82
2023-08-15T21:56:49.763Z,15.73
2023-08-15T21:59:52.778Z,14.77
2023-08-15T22:02:58.823Z,10.27
2023-08-15T22:06:01.976Z,10.33
2023-08-15T22:09:05.060Z,11.20
2023-08-15T22:12:08.124Z,11.07
2023-08-15T22:15:11.410Z,12.50
2023-08-15T22:18:20.493Z,11.03
2023-08-15T22:21:24.451Z,10.57
2023-08-15T22:24:27.584Z,11.60
2023-08-15T22:27:30.567Z,11.43
2023-08-15T22:30:33.568Z,13.40
2023-08-15T22:33:36.538Z,14.50
2023-08-15T22:36:45.501Z,12.80
2023-08-15T22:39:50.177Z,14.43
2023-08-15T22:42:53.122Z,12.15
2023-08-15T22:45:56.130Z,11.18
2023-08-15T22:48:59.096Z,13.90
2023-08-15T22:52:02.072Z,11.17
2023-08-15T22:55:05.388Z,10.93
2023-08-15T22:58:08.646Z,12.52
2023-08-15T23:01:11.644Z,15.27
2023-08-15T23:04:14.684Z,10.70
2023-08-15T23:07:17.671Z,13.47
2023-08-15T23:10:20.657Z,13.15
2023-08-15T23:13:23.707Z,15.75
2023-08-15T23:16:26.723Z,10.38
2023-08-15T23:19:29.786Z,11.63
2023-08-15T23:22:33.260Z,12.87
2023-08-15T23:25:36.724Z,11.77
2023-08-15T23:28:39.724Z,9.32
2023-08-15T23:31:42.770Z,12.60
2023-08-15T23:34:45.778Z,14.73
2023-08-15T23:37:48.823Z,10.13
2023-08-15T23:40:51.837Z,10.70
2023-08-15T23:43:55.342Z,11.38
2023-08-15T23:46:58.359Z,12.80
2023-08-15T23:50:05.544Z,12.53
2023-08-15T23:53:08.547Z,11.17
2023-08-15T23:56:11.548Z,13.32
2023-08-15T23:59:14.576Z,11.60
